createdAt,value
2023-04-17T00:01:11.780Z,101575.34
2023-04-17T00:03:38.403Z,101575.34
2023-04-17T00:06:05.407Z,101573.38
2023-04-17T00:08:33.961Z,101567.53
2023-04-17T00:11:07.998Z,101572.25
2023-04-17T00:13:36.089Z,101575.88
2023-04-17T00:16:02.940Z,101570.59
2023-04-17T00:18:29.786Z,101563.09
2023-04-17T00:20:56.867Z,101563.09
2023-04-17T00:23:23.893Z,101567.81
2023-04-17T00:25:50.532Z,101557.84
2023-04-17T00:28:17.208Z,101562.25
2023-04-17T00:30:43.781Z,101558.38
2023-04-17T00:33:10.520Z,101563.41
2023-04-17T00:35:37.234Z,101561.47
2023-04-17T00:38:04.972Z,101563.69
2023-04-17T00:40:31.553Z,101570.09
2023-04-17T00:43:04.514Z,101562.91
2023-04-17T00:45:31.451Z,101564.53
2023-04-17T00:47:59.147Z,101554.56
2023-04-17T00:50:27.396Z,101558.97
2023-04-17T00:52:54.625Z,101556.72
2023-04-17T00:55:21.740Z,101555.91
2023-04-17T00:57:51.632Z,101560.13
2023-04-17T01:00:18.569Z,101564.53
2023-04-17T01:02:46.702Z,101557.34
2023-04-17T01:05:13.689Z,101557.34
2023-04-17T01:07:44.076Z,101560.13
2023-04-17T01:10:10.848Z,101555.38
2023-04-17T01:12:37.561Z,101555.69
2023-04-17T01:15:05.051Z,101558.97
2023-04-17T01:17:32.246Z,101554.56
2023-04-17T01:19:58.829Z,101555.69
2023-04-17T01:22:25.786Z,101560.13
2023-04-17T01:24:56.606Z,101554.25
2023-04-17T01:27:26.228Z,101550.13
2023-04-17T01:29:52.889Z,101554.56
2023-04-17T01:32:20.237Z,101551.78
2023-04-17T01:34:46.845Z,101554.84
2023-04-17T01:37:13.403Z,101555.69
2023-04-17T01:39:40.691Z,101554.03
2023-04-17T01:42:07.415Z,101552.91
2023-04-17T01:44:34.102Z,101548.19
2023-04-17T01:47:00.996Z,101556.81
2023-04-17T01:49:27.609Z,101544.56
2023-04-17T01:51:54.340Z,101544.56
2023-04-17T01:54:21.326Z,101550.13
2023-04-17T01:56:48.247Z,101546.84
2023-04-17T01:59:14.944Z,101551.25
2023-04-17T02:01:41.937Z,101542.91
2023-04-17T02:04:08.830Z,101550.41
2023-04-17T02:06:35.935Z,101549.63
2023-04-17T02:09:03.080Z,101564.28
2023-04-17T02:11:29.856Z,101550.72
2023-04-17T02:13:56.501Z,101554.63
2023-04-17T02:16:23.173Z,101555.78
2023-04-17T02:18:50.343Z,101558.53
2023-04-17T02:21:16.996Z,101551.34
2023-04-17T02:23:43.868Z,101555.22
2023-04-17T02:26:10.698Z,101563.25
2023-04-17T02:28:37.164Z,101561.31
2023-04-17T02:31:08.620Z,101556.88
2023-04-17T02:33:39.038Z,101560.19
2023-04-17T02:36:07.037Z,101558.53
2023-04-17T02:38:39.262Z,101560.19
2023-04-17T02:41:06.478Z,101556.28
2023-04-17T02:43:33.813Z,101561.00
2023-04-17T02:46:01.477Z,101558.53
2023-04-17T02:48:28.333Z,101564.09
2023-04-17T02:50:55.286Z,101564.09
2023-04-17T02:53:22.338Z,101555.78
2023-04-17T02:55:49.660Z,101562.94
2023-04-17T02:58:19.040Z,101561.31
2023-04-17T03:00:45.970Z,101562.13
2023-04-17T03:03:16.191Z,101561.31
2023-04-17T03:05:43.137Z,101558.84
2023-04-17T03:08:11.029Z,101560.78
2023-04-17T03:10:49.324Z,101564.91
2023-04-17T03:13:16.152Z,101569.09
2023-04-17T03:15:42.784Z,101567.16
2023-04-17T03:18:09.404Z,101561.59
2023-04-17T03:20:36.340Z,101560.78
2023-04-17T03:23:02.915Z,101560.78
2023-04-17T03:25:29.512Z,101559.66
2023-04-17T03:27:56.639Z,101555.22
2023-04-17T03:30:30.889Z,101555.22
2023-04-17T03:33:01.262Z,101555.22
2023-04-17T03:35:30.003Z,101554.72
2023-04-17T03:37:56.678Z,101552.16
2023-04-17T03:40:23.919Z,101544.13
2023-04-17T03:42:50.567Z,101550.81
2023-04-17T03:45:17.143Z,101542.50
2023-04-17T03:47:44.059Z,101544.13
2023-04-17T03:50:11.306Z,101548.03
2023-04-17T03:52:44.022Z,101540.81
2023-04-17T03:55:11.437Z,101540.81
2023-04-17T03:57:38.472Z,101538.38
2023-04-17T04:00:10.501Z,101554.19
2023-04-17T04:02:49.009Z,101545.03
2023-04-17T04:05:19.941Z,101551.41
2023-04-17T04:07:47.224Z,101546.97
2023-04-17T04:10:21.463Z,101549.25
2023-04-17T04:12:48.066Z,101549.25
2023-04-17T04:15:15.603Z,101553.97
2023-04-17T04:17:44.924Z,101552.31
2023-04-17T04:20:12.146Z,101560.34
2023-04-17T04:22:41.571Z,101556.22
2023-04-17T04:25:08.395Z,101561.19
2023-04-17T04:27:49.739Z,101559.28
2023-04-17T04:30:21.754Z,101549.06
2023-04-17T04:32:51.524Z,101555.22
2023-04-17T04:35:18.357Z,101563.03
2023-04-17T04:37:46.452Z,101558.91
2023-04-17T04:40:16.620Z,101561.97
2023-04-17T04:42:49.445Z,101559.28
2023-04-17T04:45:21.172Z,101565.97
2023-04-17T04:47:47.872Z,101563.19
2023-04-17T04:50:14.691Z,101565.44
2023-04-17T04:52:41.237Z,101569.34
2023-04-17T04:55:39.915Z,101563.25
2023-04-17T04:58:06.580Z,101566.84
2023-04-17T05:00:35.471Z,101565.19
2023-04-17T05:03:03.001Z,101564.41
2023-04-17T05:05:30.089Z,101562.72
2023-04-17T05:07:56.835Z,101565.50
2023-04-17T05:10:27.791Z,101568.59
2023-04-17T05:12:59.179Z,101566.63
2023-04-17T05:15:27.141Z,101576.09
2023-04-17T05:17:54.475Z,101576.09
2023-04-17T05:20:21.829Z,101574.44
2023-04-17T05:22:53.453Z,101581.66
2023-04-17T05:25:22.614Z,101583.88
2023-04-17T05:27:49.557Z,101586.66
2023-04-17T05:30:17.039Z,101583.88
2023-04-17T05:32:46.668Z,101585.03
2023-04-17T05:35:32.199Z,101586.13
2023-04-17T05:37:59.559Z,101591.69
2023-04-17T05:40:26.161Z,101590.03
2023-04-17T05:42:52.856Z,101590.03
2023-04-17T05:45:19.576Z,101582.84
2023-04-17T05:47:46.477Z,101591.69
2023-04-17T05:50:14.523Z,101592.78
2023-04-17T05:52:41.422Z,101590.03
2023-04-17T05:55:10.581Z,101597.81
2023-04-17T05:57:38.150Z,101586.72
2023-04-17T06:00:13.201Z,101596.72
2023-04-17T06:02:48.992Z,101592.03
2023-04-17T06:05:24.780Z,101598.41
2023-04-17T06:07:51.892Z,101595.38
2023-04-17T06:10:18.673Z,101602.34
2023-04-17T06:12:45.451Z,101598.41
2023-04-17T06:15:12.569Z,101597.59
2023-04-17T06:17:39.582Z,101602.34
2023-04-17T06:20:10.237Z,101605.13
2023-04-17T06:22:37.392Z,101600.69
2023-04-17T06:25:11.666Z,101600.69
2023-04-17T06:27:38.907Z,101606.22
2023-04-17T06:30:05.814Z,101607.88
2023-04-17T06:32:43.300Z,101612.06
2023-04-17T06:35:12.789Z,101610.13
2023-04-17T06:37:47.725Z,101616.78
2023-04-17T06:40:14.538Z,101617.81
2023-04-17T06:42:41.206Z,101624.50
2023-04-17T06:45:12.116Z,101628.84
2023-04-17T06:47:38.773Z,101635.22
2023-04-17T06:50:05.841Z,101626.38
2023-04-17T06:52:34.502Z,101626.88
2023-04-17T06:55:02.345Z,101628.56
2023-04-17T06:57:29.239Z,101633.22
2023-04-17T06:59:55.793Z,101630.56
2023-04-17T07:02:22.585Z,101630.34
2023-04-17T07:04:49.389Z,101629.53
2023-04-17T07:07:16.286Z,101635.09
2023-04-17T07:09:44.172Z,101637.31
2023-04-17T07:12:10.898Z,101641.25
2023-04-17T07:14:38.274Z,101638.47
2023-04-17T07:17:04.984Z,101646.78
2023-04-17T07:19:32.384Z,101645.13
2023-04-17T07:21:59.058Z,101648.75
2023-04-17T07:24:25.698Z,101654.56
2023-04-17T07:26:52.379Z,101653.75
2023-04-17T07:29:19.180Z,101657.34
2023-04-17T07:31:46.226Z,101648.81
2023-04-17T07:34:13.132Z,101654.38
2023-04-17T07:36:39.859Z,101651.88
2023-04-17T07:39:08.072Z,101655.47
2023-04-17T07:41:34.882Z,101658.53
2023-04-17T07:44:03.572Z,101661.31
2023-04-17T07:46:30.199Z,101654.13
2023-04-17T07:48:56.832Z,101664.41
2023-04-17T07:51:23.393Z,101659.69
2023-04-17T07:53:50.164Z,101656.38
2023-04-17T07:56:17.577Z,101664.41
2023-04-17T07:58:45.235Z,101659.97
2023-04-17T08:01:11.822Z,101660.81
2023-04-17T08:03:41.614Z,101662.75
2023-04-17T08:06:08.508Z,101661.13
2023-04-17T08:08:35.048Z,101661.91
2023-04-17T08:11:01.644Z,101661.91
2023-04-17T08:13:29.733Z,101662.47
2023-04-17T08:15:56.387Z,101664.69
2023-04-17T08:18:22.996Z,101664.69
2023-04-17T08:20:52.198Z,101673.03
2023-04-17T08:23:18.732Z,101668.06
2023-04-17T08:25:45.844Z,101672.22
2023-04-17T08:28:12.425Z,101665.84
2023-04-17T08:30:39.123Z,101675.50
2023-04-17T08:33:05.916Z,101673.56
2023-04-17T08:35:32.632Z,101676.34
2023-04-17T08:38:00.199Z,101683.53
2023-04-17T08:40:26.826Z,101681.31
2023-04-17T08:42:54.377Z,101684.09
2023-04-17T08:45:22.871Z,101680.72
2023-04-17T08:47:49.507Z,101682.94
2023-04-17T08:50:17.714Z,101677.94
2023-04-17T08:52:50.961Z,101681.50
2023-04-17T08:55:19.614Z,101683.50
2023-04-17T08:58:01.404Z,101676.78
2023-04-17T09:00:28.896Z,101672.06
2023-04-17T09:02:57.135Z,101676.19
2023-04-17T09:05:24.274Z,101674.56
2023-04-17T09:07:51.892Z,101679.28
2023-04-17T09:10:18.737Z,101671.78
2023-04-17T09:12:59.004Z,101671.78
2023-04-17T09:15:25.957Z,101672.59
2023-04-17T09:17:52.734Z,101672.31
2023-04-17T09:20:19.629Z,101676.75
2023-04-17T09:22:46.427Z,101671.72
2023-04-17T09:25:20.760Z,101675.59
2023-04-17T09:27:47.561Z,101673.97
2023-04-17T09:30:14.261Z,101676.44
2023-04-17T09:32:41.041Z,101670.88
2023-04-17T09:35:08.135Z,101677.25
2023-04-17T09:37:49.988Z,101682.81
2023-04-17T09:40:17.212Z,101681.66
2023-04-17T09:42:56.964Z,101680.56
2023-04-17T09:45:24.616Z,101679.72
2023-04-17T09:47:52.343Z,101682.81
2023-04-17T09:50:22.415Z,101683.66
2023-04-17T09:52:50.589Z,101684.44
2023-04-17T09:55:21.297Z,101690.00
2023-04-17T09:57:49.537Z,101690.84
2023-04-17T10:00:17.615Z,101688.06
2023-04-17T10:02:44.959Z,101691.66
2023-04-17T10:05:11.889Z,101688.88
2023-04-17T10:07:39.104Z,101686.63
2023-04-17T10:10:09.415Z,101683.34
2023-04-17T10:12:37.001Z,101678.28
2023-04-17T10:15:04.710Z,101678.78
2023-04-17T10:17:32.701Z,101686.22
2023-04-17T10:20:20.423Z,101682.75
2023-04-17T10:22:57.016Z,101686.88
2023-04-17T10:25:27.578Z,101684.31
2023-04-17T10:27:55.511Z,101679.00
2023-04-17T10:30:23.166Z,101689.28
2023-04-17T10:33:10.265Z,101675.75
2023-04-17T10:35:36.901Z,101679.41
2023-04-17T10:38:05.250Z,101682.94
2023-04-17T10:40:32.858Z,101676.19
2023-04-17T10:43:04.235Z,101676.78
2023-04-17T10:45:49.348Z,101674.56
2023-04-17T10:48:45.066Z,101678.97
2023-04-17T10:51:20.764Z,101675.16
2023-04-17T10:53:51.449Z,101668.38
2023-04-17T10:56:23.887Z,101671.53
2023-04-17T10:59:01.916Z,101667.94
2023-04-17T11:01:29.492Z,101661.56
2023-04-17T11:03:56.728Z,101668.84
2023-04-17T11:06:27.309Z,101664.41
2023-04-17T11:08:55.691Z,101671.41
2023-04-17T11:11:35.302Z,101672.22
2023-04-17T11:14:12.884Z,101670.88
2023-04-17T11:16:42.122Z,101656.47
2023-04-17T11:19:13.244Z,101662.47
2023-04-17T11:21:42.474Z,101669.72
2023-04-17T11:24:09.212Z,101664.63
2023-04-17T11:26:45.355Z,101668.16
2023-04-17T11:29:15.465Z,101662.84
2023-04-17T11:31:42.258Z,101661.09
2023-04-17T11:34:09.796Z,101661.09
2023-04-17T11:36:36.454Z,101667.78
2023-04-17T11:39:03.924Z,101660.47
2023-04-17T11:41:37.740Z,101658.22
2023-04-17T11:44:04.323Z,101658.31
2023-04-17T11:46:31.100Z,101661.00
2023-04-17T11:48:57.771Z,101661.22
2023-04-17T11:51:26.226Z,101659.88
2023-04-17T11:53:52.775Z,101658.75
2023-04-17T11:56:19.949Z,101655.88
2023-04-17T11:58:50.648Z,101664.13
2023-04-17T12:01:18.643Z,101659.63
2023-04-17T12:03:45.851Z,101654.47
2023-04-17T12:06:13.258Z,101648.78
2023-04-17T12:08:42.674Z,101659.88
2023-04-17T12:11:14.962Z,101650.28
2023-04-17T12:13:41.485Z,101650.06
2023-04-17T12:16:08.162Z,101655.13
2023-04-17T12:18:34.724Z,101642.00
2023-04-17T12:21:01.289Z,101639.53
2023-04-17T12:23:27.879Z,101642.59
2023-04-17T12:25:54.472Z,101643.41
2023-04-17T12:28:22.191Z,101640.13
2023-04-17T12:30:48.856Z,101636.50
2023-04-17T12:33:15.603Z,101635.16
2023-04-17T12:35:42.223Z,101643.81
2023-04-17T12:38:09.216Z,101638.03
2023-04-17T12:40:35.908Z,101640.00
2023-04-17T12:43:04.229Z,101638.66
2023-04-17T12:45:30.923Z,101637.81
2023-04-17T12:47:57.893Z,101639.25
2023-04-17T12:50:25.245Z,101637.31
2023-04-17T12:52:51.813Z,101628.97
2023-04-17T12:55:18.562Z,101630.91
2023-04-17T12:57:46.207Z,101630.91
2023-04-17T13:00:13.285Z,101629.81
2023-04-17T13:02:40.645Z,101629.25
2023-04-17T13:05:07.581Z,101626.47
2023-04-17T13:07:34.517Z,101611.47
2023-04-17T13:10:01.272Z,101613.13
2023-04-17T13:12:27.806Z,101602.00
2023-04-17T13:14:54.370Z,101605.91
2023-04-17T13:17:21.352Z,101599.50
2023-04-17T13:19:48.004Z,101605.91
2023-04-17T13:22:16.048Z,101604.25
2023-04-17T13:24:42.717Z,101601.47
2023-04-17T13:27:09.968Z,101602.63
2023-04-17T13:29:36.631Z,101605.06
2023-04-17T13:32:03.301Z,101602.63
2023-04-17T13:34:29.883Z,101605.91
2023-04-17T13:36:56.548Z,101598.69
2023-04-17T13:39:23.172Z,101594.78
2023-04-17T13:41:49.730Z,101600.34
2023-04-17T13:44:17.520Z,101593.66
2023-04-17T13:46:44.590Z,101593.66
2023-04-17T13:49:11.730Z,101590.34
2023-04-17T13:51:38.646Z,101584.78
2023-04-17T13:54:05.342Z,101590.06
2023-04-17T13:56:31.965Z,101583.16
2023-04-17T13:58:58.498Z,101588.13
2023-04-17T14:01:25.241Z,101582.00
2023-04-17T14:03:52.258Z,101585.34
2023-04-17T14:06:19.076Z,101585.84
2023-04-17T14:08:46.194Z,101589.03
2023-04-17T14:11:14.096Z,101577.69
2023-04-17T14:13:40.947Z,101579.25
2023-04-17T14:16:07.908Z,101581.31
2023-04-17T14:18:34.579Z,101567.00
2023-04-17T14:21:01.297Z,101564.63
2023-04-17T14:23:28.256Z,101572.06
2023-04-17T14:25:55.040Z,101563.94
2023-04-17T14:28:22.412Z,101561.31
2023-04-17T14:30:49.048Z,101570.22
2023-04-17T14:33:15.609Z,101566.19
2023-04-17T14:35:42.278Z,101565.25
2023-04-17T14:38:08.920Z,101556.56
2023-04-17T14:40:35.724Z,101556.06
2023-04-17T14:43:02.546Z,101549.88
2023-04-17T14:45:29.683Z,101551.25
2023-04-17T14:47:56.496Z,101549.69
2023-04-17T14:50:23.312Z,101544.63
2023-04-17T14:52:50.010Z,101548.03
2023-04-17T14:55:16.734Z,101544.53
2023-04-17T14:57:43.610Z,101545.47
2023-04-17T15:00:10.590Z,101544.44
2023-04-17T15:02:39.116Z,101545.88
2023-04-17T15:05:06.550Z,101552.88
2023-04-17T15:07:33.121Z,101550.44
2023-04-17T15:09:59.765Z,101540.22
2023-04-17T15:12:27.171Z,101544.94
2023-04-17T15:14:53.905Z,101543.59
2023-04-17T15:17:21.031Z,101540.31
2023-04-17T15:19:47.799Z,101546.19
2023-04-17T15:22:14.549Z,101539.28
2023-04-17T15:24:41.215Z,101538.38
2023-04-17T15:27:07.786Z,101534.25
2023-04-17T15:29:34.572Z,101534.13
2023-04-17T15:32:02.484Z,101525.47
2023-04-17T15:34:29.161Z,101540.22
2023-04-17T15:36:55.784Z,101536.81
2023-04-17T15:39:23.322Z,101529.19
2023-04-17T15:41:50.618Z,101525.59
2023-04-17T15:44:17.331Z,101530.13
2023-04-17T15:46:44.052Z,101532.28
2023-04-17T15:49:10.826Z,101533.38
2023-04-17T15:51:39.053Z,101531.22
2023-04-17T15:54:07.914Z,101528.47
2023-04-17T15:56:34.738Z,101529.41
2023-04-17T15:59:01.294Z,101525.69
2023-04-17T16:01:28.689Z,101528.88
2023-04-17T16:03:55.584Z,101526.09
2023-04-17T16:06:22.468Z,101518.97
2023-04-17T16:08:49.135Z,101520.97
2023-04-17T16:11:15.756Z,101522.38
2023-04-17T16:13:42.306Z,101530.72
2023-04-17T16:16:08.943Z,101524.66
2023-04-17T16:18:35.630Z,101528.56
2023-04-17T16:21:03.087Z,101523.00
2023-04-17T16:23:29.963Z,101518.06
2023-04-17T16:25:56.546Z,101517.84
2023-04-17T16:28:23.826Z,101515.38
2023-04-17T16:30:50.603Z,101520.63
2023-04-17T16:33:17.242Z,101524.22
2023-04-17T16:35:43.735Z,101518.97
2023-04-17T16:38:10.393Z,101517.44
2023-04-17T16:40:37.034Z,101517.44
2023-04-17T16:43:03.567Z,101515.81
2023-04-17T16:45:30.098Z,101523.63
2023-04-17T16:47:56.902Z,101520.34
2023-04-17T16:50:25.472Z,101527.66
2023-04-17T16:52:52.343Z,101523.22
2023-04-17T16:55:18.906Z,101520.72
2023-04-17T16:57:46.805Z,101515.00
2023-04-17T17:00:13.907Z,101515.00
2023-04-17T17:02:40.904Z,101513.94
2023-04-17T17:05:08.190Z,101516.84
2023-04-17T17:07:34.754Z,101515.19
2023-04-17T17:10:01.730Z,101515.78
2023-04-17T17:12:28.486Z,101519.72
2023-04-17T17:14:55.310Z,101518.06
2023-04-17T17:17:22.000Z,101519.81
2023-04-17T17:19:49.128Z,101516.00
2023-04-17T17:22:15.983Z,101518.28
2023-04-17T17:24:43.135Z,101521.34
2023-04-17T17:27:09.833Z,101517.19
2023-04-17T17:29:36.380Z,101524.50
2023-04-17T17:32:02.994Z,101524.00
2023-04-17T17:34:30.497Z,101519.25
2023-04-17T17:36:57.298Z,101517.59
2023-04-17T17:39:23.928Z,101527.88
2023-04-17T17:41:50.743Z,101524.59
2023-04-17T17:44:17.599Z,101520.16
2023-04-17T17:46:44.272Z,101533.88
2023-04-17T17:49:10.916Z,101525.53
2023-04-17T17:51:37.625Z,101521.91
2023-04-17T17:54:04.123Z,101535.91
2023-04-17T17:56:30.806Z,101533.66
2023-04-17T17:58:57.405Z,101527.59
2023-04-17T18:01:25.047Z,101531.47
2023-04-17T18:03:52.956Z,101535.38
2023-04-17T18:06:20.413Z,101539.59
2023-04-17T18:08:47.170Z,101534.88
2023-04-17T18:11:14.005Z,101537.97
2023-04-17T18:13:40.600Z,101539.38
2023-04-17T18:16:07.544Z,101536.09
2023-04-17T18:18:34.173Z,101543.31
2023-04-17T18:21:05.298Z,101541.63
2023-04-17T18:23:31.784Z,101536.09
2023-04-17T18:25:58.804Z,101536.09
2023-04-17T18:28:26.148Z,101538.34
2023-04-17T18:30:52.809Z,101536.69
2023-04-17T18:33:19.430Z,101542.25
2023-04-17T18:35:46.124Z,101538.63
2023-04-17T18:38:12.730Z,101537.84
2023-04-17T18:40:39.276Z,101545.63
2023-04-17T18:43:06.212Z,101543.69
2023-04-17T18:45:32.776Z,101545.13
2023-04-17T18:47:59.483Z,101545.13
2023-04-17T18:50:27.049Z,101545.13
2023-04-17T18:52:53.570Z,101543.47
2023-04-17T18:55:20.215Z,101539.06
2023-04-17T18:57:46.828Z,101550.16
2023-04-17T19:00:13.490Z,101546.84
2023-04-17T19:02:40.746Z,101551.28
2023-04-17T19:05:07.857Z,101548.78
2023-04-17T19:07:34.512Z,101549.63
2023-04-17T19:10:01.097Z,101547.16
2023-04-17T19:12:27.794Z,101548.78
2023-04-17T19:14:57.099Z,101558.28
2023-04-17T19:17:25.493Z,101556.59
2023-04-17T19:19:52.229Z,101550.22
2023-04-17T19:22:18.850Z,101558.88
2023-04-17T19:24:49.722Z,101561.94
2023-04-17T19:27:16.787Z,101563.59
2023-04-17T19:29:43.434Z,101561.94
2023-04-17T19:32:10.782Z,101574.72
2023-04-17T19:34:37.384Z,101575.31
2023-04-17T19:37:04.427Z,101565.03
2023-04-17T19:39:31.207Z,101564.22
2023-04-17T19:41:58.136Z,101573.66
2023-04-17T19:44:26.568Z,101576.75
2023-04-17T19:46:54.403Z,101577.59
2023-04-17T19:49:20.958Z,101573.47
2023-04-17T19:51:47.581Z,101579.84
2023-04-17T19:54:15.395Z,101579.84
2023-04-17T19:56:41.968Z,101582.63
2023-04-17T19:59:12.552Z,101575.69
2023-04-17T20:01:41.400Z,101582.06
2023-04-17T20:04:09.871Z,101574.91
2023-04-17T20:06:36.572Z,101574.34
2023-04-17T20:09:04.729Z,101577.13
2023-04-17T20:11:31.304Z,101577.13
2023-04-17T20:13:58.118Z,101581.06
2023-04-17T20:16:25.133Z,101581.06
2023-04-17T20:18:52.106Z,101573.22
2023-04-17T20:21:18.833Z,101579.00
2023-04-17T20:23:46.865Z,101574.28
2023-04-17T20:26:13.491Z,101576.53
2023-04-17T20:28:40.305Z,101576.53
2023-04-17T20:31:07.066Z,101573.22
2023-04-17T20:33:33.833Z,101571.56
2023-04-17T20:36:00.760Z,101565.19
2023-04-17T20:38:27.446Z,101580.22
2023-04-17T20:40:54.158Z,101573.84
2023-04-17T20:43:20.768Z,101572.16
2023-04-17T20:45:49.276Z,101566.63
2023-04-17T20:48:16.550Z,101567.75
2023-04-17T20:50:43.270Z,101569.19
2023-04-17T20:53:09.981Z,101561.66
2023-04-17T20:55:37.782Z,101569.19
2023-04-17T20:58:04.392Z,101568.38
2023-04-17T21:00:31.116Z,101565.59
2023-04-17T21:02:57.780Z,101559.19
2023-04-17T21:05:24.814Z,101564.75
2023-04-17T21:07:51.800Z,101561.16
2023-04-17T21:10:20.023Z,101573.38
2023-04-17T21:12:47.021Z,101564.25
2023-04-17T21:15:13.628Z,101570.09
2023-04-17T21:17:40.312Z,101563.41
2023-04-17T21:20:07.466Z,101563.69
2023-04-17T21:22:34.140Z,101560.13
2023-04-17T21:25:00.864Z,101554.03
2023-04-17T21:27:27.569Z,101559.56
2023-04-17T21:29:54.317Z,101553.41
2023-04-17T21:32:21.107Z,101552.06
2023-04-17T21:34:47.932Z,101554.03
2023-04-17T21:37:14.564Z,101559.56
2023-04-17T21:39:41.275Z,101553.19
2023-04-17T21:42:09.754Z,101557.94
2023-04-17T21:44:36.384Z,101558.75
2023-04-17T21:47:03.031Z,101559.06
2023-04-17T21:49:29.691Z,101560.72
2023-04-17T21:51:56.888Z,101561.84
2023-04-17T21:54:25.368Z,101553.78
2023-04-17T21:56:52.034Z,101553.78
2023-04-17T21:59:18.838Z,101554.63
2023-04-17T22:01:45.565Z,101554.63
2023-04-17T22:04:12.317Z,101549.06
2023-04-17T22:06:39.029Z,101556.88
2023-04-17T22:09:05.688Z,101556.88
2023-04-17T22:11:32.427Z,101549.66
2023-04-17T22:13:59.025Z,101554.09
2023-04-17T22:16:25.652Z,101551.34
2023-04-17T22:18:52.183Z,101549.66
2023-04-17T22:21:18.764Z,101548.03
2023-04-17T22:23:45.316Z,101551.94
2023-04-17T22:26:11.944Z,101547.81
2023-04-17T22:28:38.836Z,101547.50
2023-04-17T22:31:05.681Z,101547.22
2023-04-17T22:33:32.239Z,101546.97
2023-04-17T22:35:58.786Z,101546.97
2023-04-17T22:38:25.281Z,101540.59
2023-04-17T22:40:51.923Z,101549.75
2023-04-17T22:43:18.631Z,101549.75
2023-04-17T22:45:45.410Z,101540.31
2023-04-17T22:48:12.105Z,101549.25
2023-04-17T22:50:39.311Z,101549.75
2023-04-17T22:53:06.015Z,101548.69
2023-04-17T22:55:33.145Z,101551.47
2023-04-17T22:58:02.003Z,101552.31
2023-04-17T23:00:29.745Z,101541.78
2023-04-17T23:02:56.452Z,101547.06
2023-04-17T23:05:23.171Z,101543.47
2023-04-17T23:07:50.542Z,101546.84
2023-04-17T23:10:17.203Z,101545.41
2023-04-17T23:12:43.940Z,101544.88
2023-04-17T23:15:10.822Z,101542.09
2023-04-17T23:17:37.525Z,101536.03
2023-04-17T23:20:04.748Z,101543.53
2023-04-17T23:22:31.261Z,101540.75
2023-04-17T23:24:57.790Z,101547.16
2023-04-17T23:27:24.350Z,101546.31
2023-04-17T23:29:50.928Z,101548.53
2023-04-17T23:32:17.478Z,101539.41
2023-04-17T23:34:44.211Z,101542.78
2023-04-17T23:37:10.994Z,101544.41
2023-04-17T23:39:37.674Z,101540.53
2023-04-17T23:42:07.234Z,101538.88
2023-04-17T23:44:34.684Z,101541.72
2023-04-17T23:47:01.748Z,101541.13
2023-04-17T23:49:28.457Z,101541.13
2023-04-17T23:51:54.910Z,101539.47
2023-04-17T23:54:21.676Z,101541.66
2023-04-17T23:56:48.165Z,101538.88
2023-04-17T23:59:14.717Z,101541.97
